Time;durP1;ratioP1;P1;durP2;ratioP2;P2;SDS_P1;SDS_P2;PMS_P1;PMS_P2;Temp;Humidity;BMP_temperature;BMP_pressure;BME280_temperature;BME280_humidity;BME280_pressure;Samples;Min_cycle;Max_cycle;Signal;HPM_P1;HPM_P2
2024/03/25 05:56:24;;;;;;;22.00;13.00;;;;;;;6.31;100.00;98752.26;109928;1281;22306;-49
2024/03/25 05:58:52;;;;;;;22.10;12.30;;;;;;;6.32;100.00;98750.70;109898;1281;22416;-48
2024/03/25 06:01:19;;;;;;;26.60;12.90;;;;;;;6.32;100.00;98750.36;107877;1281;24202;-55
2024/03/25 06:03:46;;;;;;;25.90;14.00;;;;;;;6.33;100.00;98751.73;109911;1281;22915;-54
2024/03/25 06:06:14;;;;;;;28.20;13.70;;;;;;;6.36;100.00;98753.61;109806;1281;22404;-54
2024/03/25 06:08:41;;;;;;;23.50;12.60;;;;;;;6.40;100.00;98758.27;109821;1264;23380;-54
2024/03/25 06:11:08;;;;;;;19.90;11.40;;;;;;;6.42;100.00;98756.16;109869;1282;22317;-53
2024/03/25 06:13:36;;;;;;;21.60;13.60;;;;;;;6.44;100.00;98759.11;109823;1264;23113;-55
2024/03/25 06:16:03;;;;;;;22.10;12.00;;;;;;;6.45;100.00;98762.75;109747;1278;22240;-48
2024/03/25 06:18:32;;;;;;;19.20;11.30;;;;;;;6.45;100.00;98763.09;109877;1282;22288;-48
2024/03/25 06:21:02;;;;;;;16.80;10.90;;;;;;;6.43;100.00;98761.70;109788;1281;22219;-54
2024/03/25 06:23:29;;;;;;;17.50;10.80;;;;;;;6.43;100.00;98766.73;109799;1277;22448;-48
2024/03/25 06:25:57;;;;;;;23.90;12.10;;;;;;;6.41;100.00;98766.22;109887;1281;22293;-54
2024/03/25 06:28:24;;;;;;;25.90;13.00;;;;;;;6.39;100.00;98773.34;109801;1280;23160;-53
2024/03/25 06:36:24;;;;;;;21.00;10.70;;;;;;;6.37;100.00;98780.45;108996;1281;24094;-48
2024/03/25 06:38:52;;;;;;;24.60;13.00;;;;;;;6.36;100.00;98783.40;109861;1279;23009;-54
2024/03/25 06:41:20;;;;;;;18.90;11.50;;;;;;;6.35;100.00;98782.71;109753;1280;22664;-53
2024/03/25 06:43:48;;;;;;;23.20;11.00;;;;;;;6.37;100.00;98778.71;109746;1280;22446;-47
2024/03/25 06:46:15;;;;;;;16.60;9.90;;;;;;;6.37;100.00;98773.86;109834;1281;22261;-49
2024/03/25 06:48:42;;;;;;;16.90;9.00;;;;;;;6.39;100.00;98773.52;109864;1270;22444;-49
2024/03/25 06:51:10;;;;;;;16.00;11.30;;;;;;;6.42;100.00;98772.80;109886;1281;22275;-48
2024/03/25 06:53:37;;;;;;;15.10;10.30;;;;;;;6.44;100.00;98778.34;107202;1281;24278;-54
2024/03/25 06:56:05;;;;;;;23.00;11.80;;;;;;;6.46;100.00;98778.84;109087;1281;22196;-55
2024/03/25 06:58:32;;;;;;;17.00;10.40;;;;;;;6.47;100.00;98774.50;109879;1281;22287;-49
2024/03/25 07:01:07;;;;;;;19.00;10.80;;;;;;;6.47;100.00;98775.19;109886;1281;22208;-49
2024/03/25 07:03:34;;;;;;;19.60;12.30;;;;;;;6.46;100.00;98775.89;109875;1281;22417;-49
2024/03/25 07:06:02;;;;;;;16.30;11.40;;;;;;;6.47;100.00;98773.45;109892;1279;22187;-50
2024/03/25 07:08:33;;;;;;;17.40;11.10;;;;;;;6.47;100.00;98770.67;109920;1281;23225;-54
2024/03/25 07:11:00;;;;;;;18.50;10.60;;;;;;;6.47;100.00;98766.35;109792;1276;22297;-49
2024/03/25 07:13:27;;;;;;;20.80;12.40;;;;;;;6.46;100.00;98767.92;109898;1281;22430;-49
2024/03/25 07:15:55;;;;;;;22.00;12.10;;;;;;;6.46;100.00;98768.80;109832;1281;22977;-48
2024/03/25 07:18:23;;;;;;;17.40;11.60;;;;;;;6.45;100.00;98767.77;109871;1281;22289;-48
2024/03/25 07:20:50;;;;;;;27.60;12.70;;;;;;;6.45;100.00;98764.13;109803;1275;22319;-48
2024/03/25 07:23:18;;;;;;;21.40;12.30;;;;;;;6.48;100.00;98762.52;109863;1281;22669;-48
2024/03/25 07:25:45;;;;;;;22.00;11.70;;;;;;;6.53;100.00;98767.34;109887;1276;22395;-54
2024/03/25 07:28:12;;;;;;;21.30;12.20;;;;;;;6.56;100.00;98770.10;109865;1281;23197;-53
2024/03/25 07:30:40;;;;;;;19.50;11.10;;;;;;;6.57;100.00;98770.27;109837;1280;22405;-53
2024/03/25 07:33:07;;;;;;;22.30;11.90;;;;;;;6.56;100.00;98773.39;109773;1281;22763;-53
2024/03/25 07:35:36;;;;;;;19.30;11.20;;;;;;;6.56;100.00;98768.20;109781;1281;23165;-54
2024/03/25 07:38:03;;;;;;;21.20;12.90;;;;;;;6.56;100.00;98771.31;109837;1275;23214;-55
2024/03/25 07:40:31;;;;;;;17.70;11.30;;;;;;;6.56;100.00;98765.60;109905;1274;22497;-55
2024/03/25 07:42:58;;;;;;;22.30;12.00;;;;;;;6.57;100.00;98765.23;109857;1280;22401;-54
2024/03/25 07:45:25;;;;;;;28.80;12.00;;;;;;;6.57;100.00;98763.50;109876;1281;22322;-54
2024/03/25 07:47:55;;;;;;;21.50;11.50;;;;;;;6.57;100.00;98763.16;109893;1276;22281;-54
2024/03/25 07:50:23;;;;;;;22.60;12.00;;;;;;;6.58;100.00;98763.85;109527;1280;22531;-54
2024/03/25 07:52:51;;;;;;;22.70;12.20;;;;;;;6.58;100.00;98758.65;109603;1275;23457;-48
2024/03/25 07:55:18;;;;;;;21.40;12.40;;;;;;;6.55;100.00;98760.92;109880;1281;22204;-48
2024/03/25 07:57:46;;;;;;;23.00;13.30;;;;;;;6.52;100.00;98755.23;109194;1276;22422;-53
2024/03/25 08:00:14;;;;;;;22.40;12.40;;;;;;;6.51;100.00;98754.02;109940;1281;22289;-53
2024/03/25 08:02:42;;;;;;;20.80;11.20;;;;;;;6.50;100.00;98751.27;109447;1281;22538;-52
2024/03/25 08:05:09;;;;;;;26.50;12.20;;;;;;;6.47;100.00;98749.38;109566;1281;22367;-55
2024/03/25 08:07:37;;;;;;;19.40;12.30;;;;;;;6.44;100.00;98751.14;109922;1281;22307;-55
2024/03/25 08:10:05;;;;;;;20.70;12.30;;;;;;;6.43;100.00;98751.14;109906;1281;22564;-54
2024/03/25 08:12:32;;;;;;;21.50;12.00;;;;;;;6.45;100.00;98749.05;109785;1281;23163;-54
2024/03/25 08:15:00;;;;;;;17.10;10.60;;;;;;;6.47;100.00;98752.67;109843;1281;23177;-52
2024/03/25 08:17:27;;;;;;;19.00;10.30;;;;;;;6.47;100.00;98752.14;109928;1280;22374;-54
2024/03/25 08:19:55;;;;;;;18.70;10.60;;;;;;;6.49;100.00;98751.61;109887;1281;22744;-48
2024/03/25 08:22:22;;;;;;;27.00;11.50;;;;;;;6.51;100.00;98748.48;109892;1275;22474;-53
2024/03/25 08:24:50;;;;;;;18.80;10.80;;;;;;;6.52;100.00;98746.22;109896;1281;22946;-53
2024/03/25 08:27:17;;;;;;;16.30;9.80;;;;;;;6.54;100.00;98747.76;110019;1273;23209;-53
2024/03/25 08:29:45;;;;;;;24.20;10.80;;;;;;;6.55;100.00;98752.08;109983;1278;22321;-53
2024/03/25 08:32:13;;;;;;;19.00;10.40;;;;;;;6.55;100.00;98749.66;109868;1278;22219;-54
2024/03/25 08:34:40;;;;;;;18.10;10.00;;;;;;;6.59;100.00;98752.57;109927;1278;22391;-53
2024/03/25 08:37:08;;;;;;;21.80;11.70;;;;;;;6.61;100.00;98751.85;109881;1273;22351;-53
2024/03/25 08:39:35;;;;;;;19.80;10.50;;;;;;;6.64;100.00;98748.71;109809;1272;168479;-49
2024/03/25 08:42:03;;;;;;;18.40;10.50;;;;;;;6.68;100.00;98749.38;109986;1278;22528;-49
2024/03/25 08:44:30;;;;;;;21.10;11.00;;;;;;;6.70;100.00;98748.83;109777;1277;23292;-48
2024/03/25 08:46:58;;;;;;;25.60;11.90;;;;;;;6.72;100.00;98746.38;110037;1272;22324;-52
2024/03/25 08:49:26;;;;;;;17.40;10.80;;;;;;;6.75;100.00;98743.95;109912;1272;23134;-48
2024/03/25 08:51:54;;;;;;;16.50;10.80;;;;;;;6.81;100.00;98743.88;109969;1272;22860;-55
2024/03/25 08:54:21;;;;;;;19.00;10.20;;;;;;;6.85;100.00;98740.55;110021;1270;22549;-48
2024/03/25 08:56:49;;;;;;;23.80;11.50;;;;;;;6.88;100.00;98740.34;108472;1272;22423;-49
2024/03/25 08:59:17;;;;;;;20.50;10.30;;;;;;;6.90;100.00;98738.77;109978;1270;22632;-49
2024/03/25 09:01:44;;;;;;;20.30;11.30;;;;;;;6.95;100.00;98738.04;109418;1270;22667;-55
2024/03/25 09:04:12;;;;;;;18.80;10.70;;;;;;;7.01;100.00;98735.54;110056;1273;23236;-53
2024/03/25 09:06:54;;;;;;;16.50;10.30;;;;;;;7.08;100.00;98727.15;110076;1272;24164;-54
2024/03/25 09:12:07;;;;;;;21.00;10.60;;;;;;;7.24;100.00;98725.75;110069;1272;22496;-54
2024/03/25 09:14:38;;;;;;;23.70;10.90;;;;;;;7.32;100.00;98722.35;109756;1272;22539;-54
2024/03/25 09:17:05;;;;;;;18.80;9.90;;;;;;;7.41;100.00;98722.26;109943;1277;22659;-55
2024/03/25 09:19:33;;;;;;;20.70;10.80;;;;;;;7.48;100.00;98720.77;110043;1271;22271;-55
2024/03/25 09:22:00;;;;;;;16.80;9.90;;;;;;;7.53;100.00;98718.46;109668;1276;22318;-47
2024/03/25 09:24:28;;;;;;;17.30;11.20;;;;;;;7.55;100.00;98712.20;110062;1272;22405;-47
2024/03/25 09:26:56;;;;;;;15.80;10.30;;;;;;;7.57;100.00;98717.02;109724;1272;22491;-49
2024/03/25 09:29:23;;;;;;;18.00;10.20;;;;;;;7.61;100.00;98711.59;109624;1272;22460;-55
2024/03/25 09:31:51;;;;;;;19.00;10.10;;;;;;;7.62;100.00;98706.55;109991;1271;22484;-49
2024/03/25 09:34:19;;;;;;;15.70;9.30;;;;;;;7.60;100.00;98701.88;109938;1267;22307;-49
2024/03/25 09:36:47;;;;;;;12.70;9.30;;;;;;;7.58;100.00;98700.70;109812;1274;22979;-49
2024/03/25 09:39:15;;;;;;;23.10;9.10;;;;;;;7.56;100.00;98695.00;109639;1270;22296;-52
2024/03/25 09:41:43;;;;;;;16.20;7.90;;;;;;;7.54;100.00;98695.38;110072;1272;22405;-50
2024/03/25 09:50:21;;;;;;;12.80;7.80;;;;;;;7.51;100.00;98681.20;106512;1305;545804;-54
2024/03/25 09:52:49;;;;;;;15.20;7.90;;;;;;;7.45;100.00;98673.80;109240;1283;22484;-49
2024/03/25 09:55:17;;;;;;;15.00;8.90;;;;;;;7.43;100.00;98670.88;109439;1282;23137;-49
2024/03/25 09:57:45;;;;;;;14.90;8.40;;;;;;;7.45;100.00;98662.88;108819;1285;22567;-50
2024/03/25 10:00:13;;;;;;;12.30;7.60;;;;;;;7.51;100.00;98659.16;107792;1286;22538;-50
2024/03/25 10:02:43;;;;;;;13.90;7.80;;;;;;;7.55;100.00;98652.33;109412;1288;22356;-54
2024/03/25 10:05:11;;;;;;;11.40;7.20;;;;;;;7.56;100.00;98647.98;109547;1280;22381;-49
2024/03/25 10:07:39;;;;;;;12.50;8.00;;;;;;;7.61;100.00;98644.08;109636;1285;22326;-49
2024/03/25 10:10:07;;;;;;;16.90;9.60;;;;;;;7.70;100.00;98640.66;109597;1279;22381;-49
2024/03/25 10:12:36;;;;;;;11.90;8.40;;;;;;;7.79;100.00;98637.06;109615;1285;22229;-55
2024/03/25 10:15:05;;;;;;;12.40;8.70;;;;;;;7.87;100.00;98633.12;110102;1278;23219;-49
2024/03/25 10:17:33;;;;;;;11.50;7.90;;;;;;;7.96;100.00;98633.48;110133;1278;22212;-56
2024/03/25 10:20:00;;;;;;;14.20;8.00;;;;;;;8.04;100.00;98623.30;109991;1278;22472;-55
2024/03/25 10:22:28;;;;;;;9.20;6.90;;;;;;;8.09;100.00;98620.95;110086;1278;22260;-48
2024/03/25 10:24:55;;;;;;;13.90;8.40;;;;;;;8.11;100.00;98617.96;109940;1278;22357;-48
2024/03/25 10:27:23;;;;;;;12.20;7.80;;;;;;;8.11;100.00;98612.76;110048;1278;22166;-48
2024/03/25 10:29:57;;;;;;;10.80;7.00;;;;;;;8.13;100.00;98613.25;109958;1279;22438;-48
2024/03/25 10:32:28;;;;;;;10.10;6.40;;;;;;;8.13;100.00;98608.92;110089;1278;22406;-52
2024/03/25 10:34:57;;;;;;;13.60;7.30;;;;;;;8.10;100.00;98606.53;110133;1278;22805;-54
2024/03/25 10:37:25;;;;;;;11.50;7.30;;;;;;;8.09;100.00;98600.65;110121;1276;22196;-57
2024/03/25 10:39:54;;;;;;;9.00;6.10;;;;;;;8.08;100.00;98601.36;110026;1278;22820;-49
2024/03/25 10:42:22;;;;;;;10.70;7.20;;;;;;;8.06;100.00;98595.84;109563;1278;25284;-52
2024/03/25 10:44:52;;;;;;;12.60;6.80;;;;;;;8.04;100.00;98599.17;108504;1279;22933;-49
2024/03/25 10:47:21;;;;;;;17.20;8.00;;;;;;;8.04;100.00;98593.27;107768;1278;22523;-55
2024/03/25 10:49:58;;;;;;;15.40;8.90;;;;;;;8.01;100.00;98589.50;107190;1278;23439;-54
2024/03/25 10:52:28;;;;;;;12.20;7.40;;;;;;;7.95;100.00;98586.46;108603;1278;25223;-50
2024/03/25 10:54:56;;;;;;;13.40;9.00;;;;;;;7.92;100.00;98585.98;108613;1278;22210;-54
2024/03/25 10:57:23;;;;;;;11.90;8.70;;;;;;;7.87;100.00;98583.81;109988;1278;23016;-55
2024/03/25 10:59:51;;;;;;;13.50;7.70;;;;;;;7.85;100.00;98580.56;109972;1278;22430;-48
2024/03/25 11:02:18;;;;;;;12.60;6.90;;;;;;;7.85;100.00;98577.60;109954;1278;22383;-50
2024/03/25 11:04:47;;;;;;;13.20;7.20;;;;;;;7.84;100.00;98572.42;110050;1278;22176;-49
2024/03/25 11:07:15;;;;;;;14.70;7.50;;;;;;;7.83;100.00;98568.09;110042;1278;22385;-48
2024/03/25 11:09:43;;;;;;;12.30;6.80;;;;;;;7.83;100.00;98567.92;110035;1277;22808;-48
2024/03/25 11:12:11;;;;;;;9.80;6.90;;;;;;;7.84;100.00;98571.91;110089;1278;22240;-54
2024/03/25 11:14:43;;;;;;;13.50;7.40;;;;;;;7.82;100.00;98568.28;110032;1278;23594;-48
2024/03/25 11:17:16;;;;;;;11.80;7.10;;;;;;;7.80;100.00;98570.39;110100;1278;22230;-54
2024/03/25 11:19:44;;;;;;;12.30;8.20;;;;;;;7.80;100.00;98570.55;110099;1278;22420;-55
2024/03/25 11:22:11;;;;;;;12.50;7.40;;;;;;;7.82;100.00;98572.27;109988;1279;22200;-54
2024/03/25 11:24:43;;;;;;;13.00;7.80;;;;;;;7.84;100.00;98572.42;110063;1278;22277;-55
2024/03/25 11:27:11;;;;;;;17.00;8.10;;;;;;;7.88;100.00;98569.73;110051;1270;22383;-48
2024/03/25 11:29:38;;;;;;;10.90;6.20;;;;;;;7.96;100.00;98566.13;110040;1278;23405;-49
2024/03/25 11:32:06;;;;;;;11.70;7.50;;;;;;;8.05;100.00;98560.95;110049;1278;22268;-49
2024/03/25 11:34:34;;;;;;;10.40;6.50;;;;;;;8.11;100.00;98559.98;110040;1270;22335;-55
2024/03/25 11:37:02;;;;;;;11.20;7.00;;;;;;;8.16;100.00;98565.95;109878;1278;22999;-53
2024/03/25 11:39:29;;;;;;;12.50;7.40;;;;;;;8.23;100.00;98563.40;110011;1273;23166;-54
2024/03/25 11:41:57;;;;;;;11.60;6.90;;;;;;;8.31;100.00;98570.89;110051;1270;22482;-49
2024/03/25 11:44:25;;;;;;;13.20;7.50;;;;;;;8.39;100.00;98574.27;110069;1278;22278;-48
2024/03/25 11:46:55;;;;;;;11.50;7.50;;;;;;;8.46;100.00;98578.30;110360;1269;22411;-48
2024/03/25 11:49:22;;;;;;;13.90;7.20;;;;;;;8.51;100.00;98576.98;110345;1270;22917;-48
2024/03/25 11:51:50;;;;;;;10.20;7.50;;;;;;;8.58;100.00;98576.86;110381;1270;22507;-54
2024/03/25 11:54:19;;;;;;;12.30;7.00;;;;;;;8.59;100.00;98573.73;110429;1274;22223;-49
2024/03/25 11:56:47;;;;;;;9.90;7.30;;;;;;;8.58;100.00;98579.98;110397;1274;22394;-54
2024/03/25 11:59:15;;;;;;;9.40;6.80;;;;;;;8.56;100.00;98574.48;110255;1266;22459;-48
2024/03/25 12:01:42;;;;;;;11.30;7.40;;;;;;;8.56;100.00;98574.48;107677;1274;25220;-48
2024/03/25 12:04:11;;;;;;;8.80;7.00;;;;;;;8.53;100.00;98576.10;107819;1270;22512;-57
2024/03/25 12:06:39;;;;;;;16.30;7.60;;;;;;;8.51;100.00;98574.38;110448;1270;22456;-54
2024/03/25 12:11:55;;;;;;;16.20;9.40;;;;;;;8.36;100.00;98579.00;110502;1274;22320;-53
2024/03/25 12:14:23;;;;;;;11.60;8.00;;;;;;;8.26;100.00;98582.80;109310;1274;22582;-55
2024/03/25 12:16:54;;;;;;;12.70;7.70;;;;;;;8.15;100.00;98582.65;107506;1275;26580;-49
2024/03/25 12:19:24;;;;;;;13.40;8.20;;;;;;;8.06;100.00;98583.69;107329;1276;26491;-56
2024/03/25 12:22:03;;;;;;;13.50;8.00;;;;;;;7.98;100.00;98583.63;108217;1274;22416;-49
2024/03/25 12:24:31;;;;;;;15.10;9.80;;;;;;;7.92;100.00;98582.34;107732;1269;22514;-55
2024/03/25 12:26:58;;;;;;;14.00;8.60;;;;;;;7.85;100.00;98589.58;108091;1276;25233;-54
2024/03/25 12:29:25;;;;;;;12.40;9.10;;;;;;;7.77;100.00;98592.84;109805;1274;22277;-49
2024/03/25 12:31:54;;;;;;;13.60;9.20;;;;;;;7.68;100.00;98593.84;108337;1274;24231;-49
2024/03/25 12:34:22;;;;;;;15.30;9.60;;;;;;;7.60;100.00;98596.38;109122;1274;22586;-56
2024/03/25 12:36:50;;;;;;;15.00;9.00;;;;;;;7.53;100.00;98597.02;108356;1274;22169;-55
2024/03/25 12:39:18;;;;;;;12.60;6.70;;;;;;;7.45;100.00;98594.69;110406;1276;22862;-49
2024/03/25 12:41:45;;;;;;;11.40;8.40;;;;;;;7.41;100.00;98596.83;110419;1274;23065;-49
2024/03/25 12:44:13;;;;;;;14.30;8.40;;;;;;;7.36;100.00;98601.60;110450;1274;22264;-53
2024/03/25 12:46:40;;;;;;;11.00;7.20;;;;;;;7.29;100.00;98602.90;110464;1274;22212;-53
2024/03/25 12:49:08;;;;;;;11.70;8.20;;;;;;;7.22;100.00;98601.27;108887;1274;23294;-55
2024/03/25 12:51:35;;;;;;;12.40;9.30;;;;;;;7.16;100.00;98599.95;107294;1274;22531;-50
2024/03/25 12:54:03;;;;;;;15.10;9.20;;;;;;;7.12;100.00;98604.52;108051;1274;22648;-54
2024/03/25 12:56:31;;;;;;;13.00;8.80;;;;;;;7.07;100.00;98597.98;107824;1274;22526;-55
2024/03/25 12:58:58;;;;;;;14.90;9.90;;;;;;;7.03;100.00;98592.85;107928;1269;25217;-54
2024/03/25 13:01:26;;;;;;;14.70;9.00;;;;;;;7.01;100.00;98584.88;107999;1274;22221;-55
2024/03/25 13:03:53;;;;;;;14.40;10.40;;;;;;;6.98;100.00;98576.45;107925;1274;22545;-54
2024/03/25 13:06:21;;;;;;;13.10;9.00;;;;;;;6.93;100.00;98570.42;107423;1274;26483;-55
2024/03/25 13:08:49;;;;;;;20.70;10.80;;;;;;;6.91;100.00;98572.89;107583;1274;22532;-48
2024/03/25 13:11:17;;;;;;;12.40;9.10;;;;;;;6.88;100.00;98577.42;109842;1274;22518;-50
2024/03/25 13:13:46;;;;;;;18.00;10.50;;;;;;;6.86;100.00;98574.85;107464;1274;25380;-50
2024/03/25 13:16:13;;;;;;;12.40;8.50;;;;;;;6.85;100.00;98570.02;107888;1274;22574;-51
2024/03/25 13:18:41;;;;;;;14.90;9.00;;;;;;;6.84;100.00;98570.02;107937;1269;22531;-54
2024/03/25 13:21:09;;;;;;;18.70;9.30;;;;;;;6.84;100.00;98567.42;107368;1274;22870;-50
2024/03/25 13:23:36;;;;;;;10.90;8.30;;;;;;;6.83;100.00;98565.00;107972;1274;24199;-48
2024/03/25 13:26:04;;;;;;;13.00;8.20;;;;;;;6.82;100.00;98566.74;108592;1274;22290;-54
2024/03/25 13:28:31;;;;;;;18.00;10.10;;;;;;;6.81;100.00;98563.66;110484;1274;22285;-49
2024/03/25 13:30:59;;;;;;;18.30;8.70;;;;;;;6.80;100.00;98565.75;110442;1274;22377;-48
2024/03/25 13:33:28;;;;;;;14.70;9.90;;;;;;;6.79;100.00;98564.20;110497;1274;22158;-53
2024/03/25 13:35:55;;;;;;;17.00;11.20;;;;;;;6.76;100.00;98565.10;110423;1274;22289;-54
2024/03/25 13:38:23;;;;;;;16.50;10.40;;;;;;;6.73;100.00;98566.19;110446;1274;23226;-55
2024/03/25 13:40:50;;;;;;;14.10;9.50;;;;;;;6.71;100.00;98564.98;110427;1274;22263;-49
2024/03/25 13:43:18;;;;;;;15.00;9.80;;;;;;;6.70;100.00;98564.83;110442;1270;22307;-53
2024/03/25 13:45:46;;;;;;;13.70;8.20;;;;;;;6.69;100.00;98565.70;110155;1274;22337;-48
2024/03/25 13:48:15;;;;;;;14.40;8.60;;;;;;;6.69;100.00;98564.15;110431;1269;23109;-54
2024/03/25 13:50:43;;;;;;;14.60;9.00;;;;;;;6.67;100.00;98561.40;108892;1274;23094;-53
2024/03/25 13:53:14;;;;;;;13.70;8.30;;;;;;;6.65;100.00;98558.98;110465;1274;22417;-48
2024/03/25 13:55:41;;;;;;;12.00;8.20;;;;;;;6.63;100.00;98561.96;110459;1274;22659;-48
2024/03/25 13:58:09;;;;;;;13.70;8.80;;;;;;;6.60;100.00;98557.31;110307;1274;22307;-48
2024/03/25 14:00:36;;;;;;;12.80;8.10;;;;;;;6.58;100.00;98554.05;110459;1274;22188;-49
2024/03/25 14:03:04;;;;;;;15.30;9.10;;;;;;;6.57;100.00;98551.48;109655;1274;22436;-50
2024/03/25 14:05:32;;;;;;;14.50;9.40;;;;;;;6.55;100.00;98548.55;109655;1274;23112;-54
2024/03/25 14:07:59;;;;;;;13.20;8.80;;;;;;;6.53;100.00;98548.20;110449;1274;22503;-54
2024/03/25 14:10:27;;;;;;;14.60;8.00;;;;;;;6.52;100.00;98543.73;110458;1274;22295;-49
2024/03/25 14:12:54;;;;;;;12.70;8.30;;;;;;;6.51;100.00;98539.77;110484;1274;22419;-49
2024/03/25 14:15:22;;;;;;;22.80;16.90;;;;;;;6.51;100.00;98538.02;110261;1274;23348;-52
2024/03/25 14:17:49;;;;;;;17.60;13.80;;;;;;;6.52;100.00;98538.52;107934;1274;23708;-54
2024/03/25 14:20:16;;;;;;;16.00;10.10;;;;;;;6.55;100.00;98532.42;108977;1274;22292;-49
2024/03/25 14:22:44;;;;;;;11.30;8.70;;;;;;;6.57;100.00;98531.71;110374;1274;22554;-50
2024/03/25 14:25:12;;;;;;;13.70;7.60;;;;;;;6.59;100.00;98530.30;107336;1274;22509;-50
2024/03/25 14:27:39;;;;;;;14.00;7.70;;;;;;;6.61;100.00;98527.52;107081;1274;22528;-50
2024/03/25 14:30:10;;;;;;;14.80;8.10;;;;;;;6.63;100.00;98522.80;107742;1274;22520;-55
2024/03/25 14:32:38;;;;;;;10.30;7.80;;;;;;;6.67;100.00;98521.89;107343;1274;22525;-50
2024/03/25 14:35:06;;;;;;;14.20;8.50;;;;;;;6.68;100.00;98517.73;107406;1274;22656;-55
2024/03/25 14:37:33;;;;;;;11.20;7.80;;;;;;;6.69;100.00;98522.92;107184;1274;22783;-55
2024/03/25 14:40:01;;;;;;;10.70;7.00;;;;;;;6.69;100.00;98516.33;107360;1274;22575;-56
2024/03/25 14:42:30;;;;;;;8.40;6.50;;;;;;;6.70;100.00;98516.14;107447;1274;25325;-50
2024/03/25 14:44:58;;;;;;;9.60;6.50;;;;;;;6.70;100.00;98515.44;107762;1274;24216;-49
2024/03/25 14:47:25;;;;;;;11.90;5.80;;;;;;;6.69;100.00;98508.02;107855;1274;23916;-48
2024/03/25 14:49:53;;;;;;;11.10;6.50;;;;;;;6.67;100.00;98508.73;107395;1274;22605;-50
2024/03/25 14:52:21;;;;;;;9.30;5.90;;;;;;;6.65;100.00;98510.83;107607;1274;22517;-55
2024/03/25 14:54:48;;;;;;;13.30;6.90;;;;;;;6.63;100.00;98508.27;107136;1251;22520;-54
2024/03/25 14:57:17;;;;;;;15.70;11.30;;;;;;;6.61;100.00;98505.52;107321;1274;25245;-50
2024/03/25 14:59:44;;;;;;;10.10;7.40;;;;;;;6.60;100.00;98505.68;107130;1274;25290;-56
2024/03/25 15:02:12;;;;;;;12.00;7.50;;;;;;;6.59;100.00;98504.14;107564;1274;23175;-53
2024/03/25 15:04:44;;;;;;;11.00;7.60;;;;;;;6.58;100.00;98501.73;108006;1274;22524;-49
2024/03/25 15:07:11;;;;;;;15.60;7.30;;;;;;;6.56;100.00;98497.09;107448;1274;22545;-49
2024/03/25 15:09:39;;;;;;;9.00;6.20;;;;;;;6.56;100.00;98496.74;107234;1274;22711;-51
2024/03/25 15:12:06;;;;;;;11.40;6.40;;;;;;;6.55;100.00;98494.33;107491;1274;22606;-50
2024/03/25 15:14:34;;;;;;;8.50;6.50;;;;;;;6.53;100.00;98495.04;107704;1274;23235;-49
2024/03/25 15:17:02;;;;;;;10.40;6.50;;;;;;;6.51;100.00;98491.96;107260;1274;22548;-51
2024/03/25 15:19:30;;;;;;;9.10;7.10;;;;;;;6.48;100.00;98490.23;107477;1274;22521;-49
2024/03/25 15:21:57;;;;;;;9.20;7.00;;;;;;;6.45;100.00;98492.38;107383;1274;25347;-56
2024/03/25 15:24:25;;;;;;;9.80;7.00;;;;;;;6.43;100.00;98489.63;107768;1274;23744;-49
2024/03/25 15:26:52;;;;;;;12.40;7.70;;;;;;;6.39;100.00;98486.04;107233;1274;22662;-49
2024/03/25 15:29:20;;;;;;;12.10;8.00;;;;;;;6.37;100.00;98481.55;107593;1274;24278;-55
2024/03/25 15:31:47;;;;;;;17.40;9.00;;;;;;;6.37;100.00;98479.98;109951;1274;22431;-49
2024/03/25 15:34:15;;;;;;;9.90;7.50;;;;;;;6.36;100.00;98474.63;107909;1253;24199;-48
2024/03/25 15:36:42;;;;;;;11.10;8.20;;;;;;;6.36;100.00;98477.39;107594;1276;24374;-49
2024/03/25 15:39:10;;;;;;;9.90;8.10;;;;;;;6.34;100.00;98479.68;107496;1274;22636;-51
2024/03/25 15:41:37;;;;;;;15.20;8.50;;;;;;;6.32;100.00;98481.09;107051;1274;22517;-50
2024/03/25 15:44:06;;;;;;;13.40;8.30;;;;;;;6.31;100.00;98485.77;107691;1274;22502;-49
2024/03/25 15:46:34;;;;;;;13.20;8.90;;;;;;;6.31;100.00;98490.09;107576;1274;22539;-50
2024/03/25 15:49:01;;;;;;;18.60;8.70;;;;;;;6.31;100.00;98494.77;107860;1274;22537;-55
2024/03/25 15:51:29;;;;;;;15.90;9.80;;;;;;;6.30;100.00;98491.33;107457;1274;25432;-55
2024/03/25 15:53:56;;;;;;;15.00;9.00;;;;;;;6.29;100.00;98485.80;107440;1274;22545;-49
2024/03/25 15:56:24;;;;;;;14.90;9.10;;;;;;;6.29;100.00;98484.42;107472;1274;22556;-54
2024/03/25 15:58:54;;;;;;;13.30;9.30;;;;;;;6.27;100.00;98481.85;108314;1274;22590;-55
2024/03/25 16:01:22;;;;;;;15.60;10.60;;;;;;;6.26;100.00;98479.44;107479;1274;22771;-49
2024/03/25 16:03:49;;;;;;;15.00;11.40;;;;;;;6.25;100.00;98481.16;107386;1274;23808;-51
2024/03/25 16:06:17;;;;;;;16.50;11.50;;;;;;;6.24;100.00;98478.93;108054;1274;22149;-55
2024/03/25 16:08:44;;;;;;;15.70;10.80;;;;;;;6.24;100.00;98479.63;107412;1274;25223;-54
2024/03/25 16:11:17;;;;;;;19.10;13.70;;;;;;;6.23;100.00;98482.74;107134;1274;22612;-49
2024/03/25 16:13:44;;;;;;;17.70;13.40;;;;;;;6.23;100.00;98478.94;107703;1274;24118;-56
2024/03/25 16:16:12;;;;;;;19.20;13.70;;;;;;;6.24;100.00;98481.17;108180;1276;22465;-55
2024/03/25 16:18:39;;;;;;;21.00;13.70;;;;;;;6.24;100.00;98485.67;110418;1275;22253;-49
2024/03/25 16:21:14;;;;;;;18.50;12.30;;;;;;;6.25;100.00;98484.62;110125;1274;22606;-54
2024/03/25 16:23:42;;;;;;;20.20;13.20;;;;;;;6.25;100.00;98484.98;110489;1274;23294;-55
